createdAt,value
2016-08-04T00:00:06.516Z,80.2
2016-08-04T00:01:06.517Z,80.3
2016-08-04T00:02:06.511Z,80.3
2016-08-04T00:03:06.712Z,80.1
2016-08-04T00:04:06.510Z,80
2016-08-04T00:05:06.561Z,80.39
2016-08-04T00:06:06.507Z,80.2
2016-08-04T00:07:06.504Z,80.2
2016-08-04T00:08:06.501Z,79.81
2016-08-04T00:09:06.499Z,79.62
2016-08-04T00:10:06.501Z,79.62
2016-08-04T00:11:06.501Z,79.43
2016-08-04T00:12:06.501Z,79.52
2016-08-04T00:13:06.499Z,79.52
2016-08-04T00:14:06.695Z,79.62
2016-08-04T00:15:06.495Z,79.62
2016-08-04T00:16:06.491Z,79.62
2016-08-04T00:17:06.496Z,79.81
2016-08-04T00:18:06.488Z,79.72
2016-08-04T00:19:06.495Z,79.62
2016-08-04T00:20:06.487Z,79.52
2016-08-04T00:21:06.485Z,79.72
2016-08-04T00:22:06.490Z,79.72
2016-08-04T00:23:06.483Z,79.81
2016-08-04T00:24:06.479Z,79.91
2016-08-04T00:25:06.479Z,79.81
2016-08-04T00:26:06.476Z,79.91
2016-08-04T00:27:06.474Z,79.81
2016-08-04T00:28:06.476Z,79.24
2016-08-04T00:29:06.473Z,79.33
2016-08-04T00:30:06.473Z,79.24
2016-08-04T00:31:06.467Z,79.24
2016-08-04T00:32:06.467Z,79.14
2016-08-04T00:33:06.465Z,79.24
2016-08-04T00:34:06.464Z,79.33
2016-08-04T00:35:06.868Z,79.24
2016-08-04T00:36:06.473Z,79.33
2016-08-04T00:37:06.662Z,79.62
2016-08-04T00:38:06.461Z,79.04
2016-08-04T00:39:06.458Z,79.62
2016-08-04T00:40:06.660Z,79.33
2016-08-04T00:41:06.458Z,79.14
2016-08-04T00:42:06.448Z,79.14
2016-08-04T00:43:06.457Z,78.94
2016-08-04T00:44:06.455Z,78.94
2016-08-04T00:45:06.449Z,78.85
2016-08-04T00:46:06.445Z,78.94
2016-08-04T00:47:06.449Z,78.66
2016-08-04T00:48:06.442Z,78.66
2016-08-04T00:49:06.448Z,78.94
2016-08-04T00:50:06.445Z,78.66
2016-08-04T00:51:06.440Z,78.94
2016-08-04T00:52:06.440Z,78.94
2016-08-04T00:53:06.441Z,79.04
2016-08-04T00:54:06.452Z,78.94
2016-08-04T00:55:06.434Z,78.94
2016-08-04T00:56:06.430Z,79.04
2016-08-04T00:57:06.445Z,78.85
2016-08-04T00:58:06.431Z,79.04
2016-08-04T00:59:06.427Z,79.04
2016-08-04T01:00:06.428Z,78.85
2016-08-04T01:01:06.426Z,78.94
2016-08-04T01:02:06.428Z,79.14
2016-08-04T01:03:06.428Z,79.04
2016-08-04T01:04:06.423Z,79.14
2016-08-04T01:05:06.419Z,79
2016-08-04T01:06:06.424Z,78.75
2016-08-04T01:07:06.421Z,79.14
2016-08-04T01:08:06.415Z,78.61
2016-08-04T01:09:06.417Z,78.52
2016-08-04T01:10:06.412Z,79.24
2016-08-04T01:11:06.409Z,79.24
2016-08-04T01:12:08.057Z,79.33
2016-08-04T01:13:06.762Z,78.66
2016-08-04T01:14:06.622Z,79.24
2016-08-04T01:15:06.401Z,79.33
2016-08-04T01:16:06.401Z,79.19
2016-08-04T01:17:06.398Z,79.1
2016-08-04T01:18:06.395Z,78.52
2016-08-04T01:19:06.395Z,78.81
2016-08-04T01:20:06.393Z,79.39
2016-08-04T01:21:06.387Z,79
2016-08-04T01:22:06.391Z,79.19
2016-08-04T01:23:06.389Z,78.71
2016-08-04T01:24:06.386Z,78.81
2016-08-04T01:25:06.386Z,78.61
2016-08-04T01:26:06.387Z,78.71
2016-08-04T01:27:06.377Z,78.61
2016-08-04T01:28:06.389Z,78.61
2016-08-04T01:29:06.376Z,78.42
2016-08-04T01:30:06.376Z,78.42
2016-08-04T01:31:06.377Z,78.71
2016-08-04T01:32:06.374Z,78.52
2016-08-04T01:33:06.373Z,78.33
2016-08-04T01:34:06.373Z,78.42
2016-08-04T01:35:06.373Z,78.42
2016-08-04T01:36:06.379Z,78.71
2016-08-04T01:37:06.358Z,78.33
2016-08-04T01:38:06.362Z,78.33
2016-08-04T01:39:06.574Z,78.42
2016-08-04T01:40:06.363Z,78.52
2016-08-04T01:41:06.358Z,78.61
2016-08-04T01:42:06.363Z,78.61
2016-08-04T01:43:06.356Z,78.52
2016-08-04T01:44:06.353Z,78.71
2016-08-04T01:45:06.351Z,78.81
2016-08-04T01:46:06.351Z,79.19
2016-08-04T01:47:06.351Z,79.19
2016-08-04T01:48:06.343Z,79.1
2016-08-04T01:49:06.357Z,79.19
2016-08-04T01:50:05.884Z,78.71
2016-08-04T01:51:06.344Z,78.61
2016-08-04T01:52:06.352Z,78.42
2016-08-04T01:53:06.342Z,78.33
2016-08-04T01:54:06.333Z,78.33
2016-08-04T01:55:06.337Z,78.42
2016-08-04T01:56:06.338Z,78.52
2016-08-04T01:57:06.534Z,78.91
2016-08-04T01:58:06.333Z,78.13
2016-08-04T01:59:06.328Z,78.81
2016-08-04T02:00:06.328Z,78.23
2016-08-04T02:01:06.326Z,78.42
2016-08-04T02:02:06.323Z,78.42
2016-08-04T02:03:06.330Z,78.33
2016-08-04T02:04:06.316Z,78.52
2016-08-04T02:06:06.521Z,78.52
2016-08-04T02:07:06.316Z,78.48
2016-08-04T02:08:06.313Z,78.52
2016-08-04T02:09:06.314Z,78.33
2016-08-04T02:10:06.312Z,78.33
2016-08-04T02:11:06.309Z,78.33
2016-08-04T02:12:06.503Z,78.42
2016-08-04T02:13:06.310Z,78.33
2016-08-04T02:14:06.307Z,78.96
2016-08-04T02:15:06.304Z,78.58
2016-08-04T02:16:06.299Z,78.67
2016-08-04T02:17:06.302Z,78.58
2016-08-04T02:18:06.296Z,78.19
2016-08-04T02:19:06.306Z,78.58
2016-08-04T02:20:06.294Z,78.77
2016-08-04T02:21:06.286Z,78.48
2016-08-04T02:22:06.286Z,79.06
2016-08-04T02:23:06.287Z,78.38
2016-08-04T02:24:06.288Z,78.67
2016-08-04T02:25:06.286Z,78.58
2016-08-04T02:26:06.275Z,79.06
2016-08-04T02:27:06.280Z,78.58
2016-08-04T02:28:06.281Z,78.67
2016-08-04T02:29:06.275Z,78.67
2016-08-04T02:30:06.280Z,78.48
2016-08-04T02:31:06.275Z,79.16
2016-08-04T02:32:06.474Z,79.16
2016-08-04T02:33:06.269Z,79.25
2016-08-04T02:34:06.271Z,78.29
2016-08-04T02:35:06.266Z,79.16
2016-08-04T02:36:06.264Z,79.25
2016-08-04T02:37:06.261Z,79.25
2016-08-04T02:38:06.262Z,79.25
2016-08-04T02:39:06.257Z,79.25
2016-08-04T02:40:06.251Z,79.16
2016-08-04T02:41:06.252Z,79.16
2016-08-04T02:42:06.251Z,79.16
2016-08-04T02:43:06.253Z,79.25
2016-08-04T02:44:06.247Z,79.25
2016-08-04T02:45:06.246Z,79.06
2016-08-04T02:46:06.445Z,79.16
2016-08-04T02:47:06.237Z,79.35
2016-08-04T02:48:06.242Z,78.48
2016-08-04T02:49:06.239Z,78.58
2016-08-04T02:50:06.233Z,78.58
2016-08-04T02:51:06.232Z,78.48
2016-08-04T02:52:06.235Z,79.16
2016-08-04T02:53:06.229Z,79.16
2016-08-04T02:54:06.228Z,79.25
2016-08-04T02:55:06.220Z,79.25
2016-08-04T02:56:06.230Z,78.38
2016-08-04T02:57:06.225Z,79.16
2016-08-04T02:58:06.224Z,79.35
2016-08-04T02:59:06.217Z,78.58
2016-08-04T03:00:06.221Z,78.48
2016-08-04T03:01:06.218Z,79.25
2016-08-04T03:02:06.212Z,79.06
2016-08-04T03:03:06.210Z,79.06
2016-08-04T03:04:06.215Z,78.96
2016-08-04T03:05:06.203Z,79.25
2016-08-04T03:06:06.201Z,79.06
2016-08-04T03:07:06.207Z,78.67
2016-08-04T03:08:06.202Z,78.54
2016-08-04T03:09:06.199Z,78.63
2016-08-04T03:10:06.203Z,78.48
2016-08-04T03:11:06.396Z,78.54
2016-08-04T03:12:06.197Z,78.54
2016-08-04T03:13:06.191Z,79.25
2016-08-04T03:14:06.196Z,78.86
2016-08-04T03:15:06.185Z,79.02
2016-08-04T03:16:06.197Z,78.34
2016-08-04T03:17:06.187Z,78.54
2016-08-04T03:18:06.389Z,79.11
2016-08-04T03:19:06.186Z,79.11
2016-08-04T03:20:06.180Z,78.48
2016-08-04T03:21:06.173Z,79.21
2016-08-04T03:22:06.173Z,79.25
2016-08-04T03:23:06.169Z,79.11
2016-08-04T03:24:06.174Z,79.21
2016-08-04T03:25:06.168Z,78.63
2016-08-04T03:26:06.168Z,78.29
2016-08-04T03:27:06.163Z,78.44
2016-08-04T03:28:06.161Z,78.83
2016-08-04T03:29:06.163Z,78.63
2016-08-04T03:30:06.164Z,78.54
2016-08-04T03:31:06.162Z,78.44
2016-08-04T03:32:06.163Z,79.21
2016-08-04T03:33:06.160Z,79.02
2016-08-04T03:34:06.153Z,78.63
2016-08-04T03:35:06.153Z,78.54
2016-08-04T03:36:06.150Z,78.44
2016-08-04T03:37:06.146Z,78.44
2016-08-04T03:38:06.141Z,78.34
2016-08-04T03:39:06.141Z,78.73
2016-08-04T03:40:06.136Z,78.63
2016-08-04T03:41:06.137Z,78.34
2016-08-04T03:42:06.132Z,78.73
2016-08-04T03:43:06.130Z,78.54
2016-08-04T03:44:06.134Z,79.21
2016-08-04T03:45:06.132Z,79.02
2016-08-04T03:46:06.130Z,79.11
2016-08-04T03:47:06.123Z,79.11
2016-08-04T03:48:06.118Z,79.02
2016-08-04T03:49:06.124Z,79.11
2016-08-04T03:50:06.118Z,78.54
2016-08-04T03:51:06.117Z,78.44
2016-08-04T03:52:06.119Z,78.54
2016-08-04T03:53:06.113Z,78.44
2016-08-04T03:54:06.112Z,78.63
2016-08-04T03:55:06.112Z,78.25
2016-08-04T03:56:06.107Z,78.54
2016-08-04T03:57:06.105Z,78.15
2016-08-04T03:58:06.103Z,78.25
2016-08-04T03:59:06.096Z,78.63
2016-08-04T04:00:06.102Z,78.63
2016-08-04T04:01:06.095Z,79.02
2016-08-04T04:02:06.095Z,78.34
2016-08-04T04:03:06.291Z,78.25
2016-08-04T04:04:06.090Z,78.25
2016-08-04T04:05:06.091Z,78.25
2016-08-04T04:06:06.083Z,78.25
2016-08-04T04:07:06.082Z,78.25
2016-08-04T04:08:06.081Z,78.34
2016-08-04T04:09:06.089Z,78.63
2016-08-04T04:10:06.079Z,78.44
2016-08-04T04:11:06.075Z,78.63
2016-08-04T04:12:06.074Z,78.44
2016-08-04T04:13:06.077Z,78.44
2016-08-04T04:14:06.064Z,78.44
2016-08-04T04:15:06.057Z,78.34
2016-08-04T04:16:06.063Z,78.34
2016-08-04T04:17:06.058Z,78.63
2016-08-04T04:18:06.057Z,78.63
2016-08-04T04:19:06.056Z,78.44
2016-08-04T04:20:06.055Z,78.44
2016-08-04T04:21:06.053Z,78.44
2016-08-04T04:22:06.050Z,78.63
2016-08-04T04:23:06.045Z,78.34
2016-08-04T04:24:06.244Z,78.44
2016-08-04T04:25:06.046Z,78.54
2016-08-04T04:26:06.037Z,78.34
2016-08-04T04:27:06.037Z,78.63
2016-08-04T04:28:06.034Z,78.54
2016-08-04T04:29:06.035Z,78.63
2016-08-04T04:30:06.032Z,78.15
2016-08-04T04:31:06.029Z,78.44
2016-08-04T04:32:06.024Z,78.15
2016-08-04T04:33:06.022Z,77.96
2016-08-04T04:34:06.227Z,78.06
2016-08-04T04:35:06.015Z,78.06
2016-08-04T04:36:06.028Z,78.06
2016-08-04T04:37:06.015Z,78.34
2016-08-04T04:38:06.010Z,78.34
2016-08-04T04:39:06.008Z,78.25
2016-08-04T04:40:06.009Z,78.34
2016-08-04T04:41:06.006Z,78.15
2016-08-04T04:42:06.009Z,78.06
2016-08-04T04:43:06.002Z,78.15
2016-08-04T04:44:06.001Z,77.96
2016-08-04T04:45:05.995Z,78.25
2016-08-04T04:46:05.995Z,78.06
2016-08-04T04:47:05.996Z,78.06
2016-08-04T04:48:05.993Z,78.06
2016-08-04T04:49:05.987Z,78.06
2016-08-04T04:50:05.983Z,78.25
2016-08-04T04:51:05.988Z,78.25
2016-08-04T04:52:05.993Z,78.15
2016-08-04T04:53:05.974Z,78.25
2016-08-04T04:54:05.976Z,78.15
2016-08-04T04:55:05.969Z,78.25
2016-08-04T04:56:05.964Z,78.06
2016-08-04T04:57:05.968Z,78.34
2016-08-04T04:58:05.970Z,78.44
2016-08-04T04:59:05.968Z,78.34
2016-08-04T05:00:05.966Z,77.96
2016-08-04T05:01:05.958Z,78.54
2016-08-04T05:02:05.958Z,78.34
2016-08-04T05:03:05.954Z,78.15
2016-08-04T05:04:05.954Z,78.25
2016-08-04T05:05:05.947Z,78.25
2016-08-04T05:06:05.945Z,78.25
2016-08-04T05:07:05.955Z,78.06
2016-08-04T05:08:05.941Z,78.25
2016-08-04T05:09:05.942Z,78.15
2016-08-04T05:10:05.938Z,78.34
2016-08-04T05:11:05.939Z,77.86
2016-08-04T05:12:05.936Z,77.67
2016-08-04T05:13:05.929Z,78.34
2016-08-04T05:14:05.928Z,77.92
2016-08-04T05:15:05.923Z,78.44
2016-08-04T05:16:05.926Z,78.54
2016-08-04T05:17:05.922Z,78.11
2016-08-04T05:18:05.923Z,78.31
2016-08-04T05:19:05.919Z,78.31
2016-08-04T05:20:05.914Z,77.63
2016-08-04T05:21:05.911Z,77.63
2016-08-04T05:22:05.915Z,77.86
2016-08-04T05:23:05.910Z,77.63
2016-08-04T05:24:05.906Z,77.53
2016-08-04T05:25:05.917Z,77.92
2016-08-04T05:26:05.889Z,77.73
2016-08-04T05:27:05.895Z,78.02
2016-08-04T05:28:05.893Z,77.76
2016-08-04T05:29:05.892Z,78.11
2016-08-04T05:30:06.097Z,77.92
2016-08-04T05:31:05.889Z,78.15
2016-08-04T05:32:05.894Z,77.96
2016-08-04T05:33:05.886Z,77.92
2016-08-04T05:34:05.883Z,78.11
2016-08-04T05:35:06.081Z,78.11
2016-08-04T05:37:05.871Z,77.83
2016-08-04T05:38:05.873Z,77.76
2016-08-04T05:39:05.878Z,77.48
2016-08-04T05:40:05.875Z,77.83
2016-08-04T05:41:05.869Z,77.92
2016-08-04T05:42:05.860Z,77.83
2016-08-04T05:43:05.860Z,77.92
2016-08-04T05:44:05.854Z,77.92
2016-08-04T05:45:06.056Z,77.92
2016-08-04T05:46:05.851Z,77.73
2016-08-04T05:47:05.853Z,77.92
2016-08-04T05:48:05.851Z,78.11
2016-08-04T05:49:05.849Z,78.11
2016-08-04T05:50:05.847Z,77.92
2016-08-04T05:52:05.839Z,77.73
2016-08-04T05:53:05.836Z,77.83
2016-08-04T05:54:05.831Z,77.73
2016-08-04T05:55:05.831Z,77.73
2016-08-04T05:56:05.828Z,77.73
2016-08-04T05:57:05.825Z,77.73
2016-08-04T05:58:05.824Z,77.92
2016-08-04T05:59:05.821Z,77.73
2016-08-04T06:00:06.021Z,77.83
2016-08-04T06:01:05.815Z,77.92
2016-08-04T06:02:05.810Z,77.63
2016-08-04T06:03:05.807Z,77.92
2016-08-04T06:04:05.814Z,77.63
2016-08-04T06:05:05.805Z,77.83
2016-08-04T06:06:05.801Z,77.73
2016-08-04T06:07:05.797Z,77.63
2016-08-04T06:08:05.799Z,77.92
2016-08-04T06:09:05.997Z,77.53
2016-08-04T06:10:05.789Z,77.63
2016-08-04T06:11:05.789Z,77.63
2016-08-04T06:12:05.796Z,77.73
2016-08-04T06:13:05.785Z,77.92
2016-08-04T06:14:05.780Z,77.63
2016-08-04T06:15:05.779Z,77.73
2016-08-04T06:16:05.776Z,77.92
2016-08-04T06:17:05.778Z,77.53
2016-08-04T06:18:05.774Z,77.53
2016-08-04T06:19:05.767Z,78.02
2016-08-04T06:20:05.765Z,78.02
2016-08-04T06:21:05.760Z,77.83
2016-08-04T06:22:05.776Z,77.73
2016-08-04T06:23:05.780Z,77.92
2016-08-04T06:24:05.764Z,77.73
2016-08-04T06:25:05.754Z,77.53
2016-08-04T06:26:05.750Z,77.92
2016-08-04T06:27:05.749Z,77.92
2016-08-04T06:28:05.742Z,77.92
2016-08-04T06:29:05.744Z,77.83
2016-08-04T06:30:05.744Z,78.02
2016-08-04T06:31:05.736Z,77.53
2016-08-04T06:32:05.728Z,77.92
2016-08-04T06:33:05.732Z,77.92
2016-08-04T06:34:05.732Z,77.44
2016-08-04T06:35:05.729Z,77.34
2016-08-04T06:36:05.727Z,77.63
2016-08-04T06:37:05.721Z,77.34
2016-08-04T06:38:05.721Z,77.06
2016-08-04T06:39:05.715Z,77.06
2016-08-04T06:40:05.720Z,77.06
2016-08-04T06:41:05.710Z,77.34
2016-08-04T06:42:05.712Z,77.44
2016-08-04T06:43:05.703Z,77.34
2016-08-04T06:44:05.715Z,77.34
2016-08-04T06:45:05.713Z,77.44
2016-08-04T06:46:05.697Z,77.34
2016-08-04T06:47:05.695Z,76.86
2016-08-04T06:48:05.689Z,77.15
2016-08-04T06:49:05.684Z,77.15
2016-08-04T06:50:05.707Z,77.15
2016-08-04T06:51:05.884Z,77.15
2016-08-04T06:52:05.681Z,77.06
2016-08-04T06:53:05.683Z,77.25
2016-08-04T06:54:05.671Z,77.15
2016-08-04T06:55:05.874Z,77.44
2016-08-04T06:56:05.674Z,76.96
2016-08-04T06:57:05.666Z,76.76
2016-08-04T06:58:05.869Z,76.67
2016-08-04T06:59:05.669Z,76.76
2016-08-04T07:00:05.663Z,76.57
2016-08-04T07:01:05.656Z,76.57
2016-08-04T07:02:05.655Z,76.76
2016-08-04T07:03:05.654Z,76.86
2016-08-04T07:04:05.650Z,76.76
2016-08-04T07:05:05.647Z,76.67
2016-08-04T07:06:05.644Z,76.86
2016-08-04T07:07:05.642Z,77.06
2016-08-04T07:08:05.638Z,77.15
2016-08-04T07:09:05.638Z,77.15
2016-08-04T07:10:05.635Z,77.15
2016-08-04T07:11:05.633Z,76.67
2016-08-04T07:12:05.630Z,76.76
2016-08-04T07:13:05.631Z,76.96
2016-08-04T07:14:05.623Z,77.06
2016-08-04T07:15:05.620Z,77.15
2016-08-04T07:16:05.613Z,76.76
2016-08-04T07:17:05.612Z,76.67
2016-08-04T07:18:05.614Z,77.06
2016-08-04T07:19:05.626Z,77.15
2016-08-04T07:20:05.606Z,77.15
2016-08-04T07:21:05.605Z,76.57
2016-08-04T07:22:05.601Z,77.15
2016-08-04T07:23:05.602Z,76.57
2016-08-04T07:24:05.595Z,76.57
2016-08-04T07:25:05.598Z,76.48
2016-08-04T07:26:05.590Z,77.06
2016-08-04T07:27:05.589Z,76.57
2016-08-04T07:28:05.582Z,76.67
2016-08-04T07:29:05.582Z,76.38
2016-08-04T07:30:05.578Z,76.76
2016-08-04T07:31:05.574Z,76.38
2016-08-04T07:32:05.571Z,76.57
2016-08-04T07:33:05.570Z,76.57
2016-08-04T07:34:05.568Z,76.57
2016-08-04T07:35:05.564Z,76.48
2016-08-04T07:36:05.563Z,76.57
2016-08-04T07:37:05.563Z,76.48
2016-08-04T07:38:05.569Z,76.57
2016-08-04T07:39:05.557Z,76.28
2016-08-04T07:40:05.554Z,76.67
2016-08-04T07:41:05.554Z,76.48
2016-08-04T07:42:05.549Z,76.28
2016-08-04T07:43:05.554Z,76.48
2016-08-04T07:44:05.546Z,76.48
2016-08-04T07:45:05.540Z,76.28
2016-08-04T07:46:05.533Z,76.09
2016-08-04T07:47:05.533Z,76.18
2016-08-04T07:48:05.534Z,76.38
2016-08-04T07:49:05.531Z,75.9
2016-08-04T07:50:05.525Z,75.8
2016-08-04T07:51:05.522Z,75.9
2016-08-04T07:52:05.526Z,76.09
2016-08-04T07:53:05.514Z,76.09
2016-08-04T07:54:05.512Z,76.18
2016-08-04T07:55:05.511Z,76.28
2016-08-04T07:56:05.508Z,76.18
2016-08-04T07:57:05.505Z,76.18
2016-08-04T07:58:05.711Z,76.09
2016-08-04T07:59:05.502Z,76.28
2016-08-04T08:00:05.496Z,76.09
2016-08-04T08:01:05.492Z,76.18
2016-08-04T08:02:05.502Z,76.28
2016-08-04T08:03:05.488Z,76.18
2016-08-04T08:04:05.483Z,75.99
2016-08-04T08:05:05.489Z,75.61
2016-08-04T08:06:05.682Z,75.51
2016-08-04T08:07:05.480Z,75.51
2016-08-04T08:08:05.479Z,75.8
2016-08-04T08:09:05.671Z,75.9
2016-08-04T08:10:05.473Z,75.61
2016-08-04T08:11:05.478Z,75.65
2016-08-04T08:12:05.476Z,75.71
2016-08-04T08:13:05.459Z,75.71
2016-08-04T08:14:05.462Z,75.9
2016-08-04T08:15:05.458Z,75.51
2016-08-04T08:16:05.451Z,75.51
2016-08-04T08:17:05.450Z,75.74
2016-08-04T08:18:05.448Z,75.61
2016-08-04T08:19:05.448Z,75.42
2016-08-04T08:20:05.448Z,75.42
2016-08-04T08:21:05.442Z,75.23
2016-08-04T08:22:05.434Z,75.74
2016-08-04T08:23:05.434Z,75.65
2016-08-04T08:24:05.446Z,75.55
2016-08-04T08:25:05.428Z,75.65
2016-08-04T08:26:05.431Z,75.45
2016-08-04T08:27:05.424Z,75.65
2016-08-04T08:28:05.428Z,75.93
2016-08-04T08:29:05.416Z,75.65
2016-08-04T08:30:05.417Z,75.55
2016-08-04T08:31:05.412Z,75.74
2016-08-04T08:32:05.415Z,75.51
2016-08-04T08:33:05.410Z,75.74
2016-08-04T08:34:05.404Z,75.74
2016-08-04T08:35:05.399Z,75.55
2016-08-04T08:36:05.399Z,75.74
2016-08-04T08:37:05.396Z,75.65
2016-08-04T08:38:05.395Z,75.65
2016-08-04T08:39:05.441Z,75.74
2016-08-04T08:40:05.387Z,75.65
2016-08-04T08:41:05.390Z,75.84
2016-08-04T08:42:05.395Z,75.26
2016-08-04T08:43:05.387Z,75.36
2016-08-04T08:44:05.376Z,75.16
2016-08-04T08:45:05.379Z,75.26
2016-08-04T08:46:05.366Z,75.36
2016-08-04T08:47:05.368Z,75.36
2016-08-04T08:48:05.359Z,75.36
2016-08-04T08:49:05.359Z,75.45
2016-08-04T08:50:05.367Z,75.36
2016-08-04T08:51:05.359Z,75.36
2016-08-04T08:52:05.355Z,75.65
2016-08-04T08:53:05.352Z,75.36
2016-08-04T08:54:05.457Z,75.45
2016-08-04T08:55:05.353Z,75.16
2016-08-04T08:56:05.544Z,75.36
2016-08-04T08:57:05.357Z,75.36
2016-08-04T08:58:05.337Z,75.26
2016-08-04T08:59:05.340Z,75.36
2016-08-04T09:00:05.336Z,75.26
2016-08-04T09:01:05.331Z,75.45
2016-08-04T09:02:05.327Z,75.36
2016-08-04T09:03:05.322Z,75.36
2016-08-04T09:04:05.325Z,75.36
2016-08-04T09:05:05.319Z,75.26
2016-08-04T09:06:05.316Z,75.26
2016-08-04T09:07:05.311Z,74.97
2016-08-04T09:08:05.312Z,74.88
2016-08-04T09:09:05.306Z,74.68
2016-08-04T09:10:05.301Z,74.88
2016-08-04T09:11:05.299Z,75.36
2016-08-04T09:12:05.294Z,74.78
2016-08-04T09:13:05.294Z,74.88
2016-08-04T09:14:05.302Z,74.88
2016-08-04T09:15:05.291Z,74.88
2016-08-04T09:16:05.287Z,74.78
2016-08-04T09:17:05.486Z,74.88
2016-08-04T09:18:05.486Z,74.78
2016-08-04T09:19:05.282Z,74.97
2016-08-04T09:20:05.275Z,74.97
2016-08-04T09:21:05.277Z,74.88
2016-08-04T09:22:05.273Z,74.97
2016-08-04T09:23:05.267Z,74.88
2016-08-04T09:24:05.264Z,74.97
2016-08-04T09:25:05.264Z,74.97
2016-08-04T09:26:05.261Z,74.68
2016-08-04T09:27:05.260Z,74.68
2016-08-04T09:28:05.265Z,74.97
2016-08-04T09:29:05.255Z,74.78
2016-08-04T09:30:05.248Z,74.78
2016-08-04T09:31:05.246Z,74.68
2016-08-04T09:32:05.242Z,74.97
2016-08-04T09:33:05.243Z,74.68
2016-08-04T09:34:05.243Z,74.97
2016-08-04T09:35:05.235Z,74.88
2016-08-04T09:36:05.232Z,74.88
2016-08-04T09:37:05.225Z,75.26
2016-08-04T09:38:05.231Z,74.97
2016-08-04T09:39:05.224Z,75.07
2016-08-04T09:40:05.221Z,75.16
2016-08-04T09:41:05.229Z,74.97
2016-08-04T09:42:05.219Z,75.16
2016-08-04T09:43:05.217Z,75.07
2016-08-04T09:44:05.210Z,75.07
2016-08-04T09:45:05.210Z,74.88
2016-08-04T09:46:05.203Z,74.97
2016-08-04T09:47:05.208Z,74.97
2016-08-04T09:48:05.201Z,74.88
2016-08-04T09:49:05.198Z,74.97
2016-08-04T09:50:05.196Z,74.78
2016-08-04T09:51:05.192Z,74.97
2016-08-04T09:52:05.191Z,74.97
2016-08-04T09:53:05.185Z,74.78
2016-08-04T09:54:05.182Z,74.78
2016-08-04T09:55:05.185Z,75.16
2016-08-04T09:56:05.179Z,74.78
2016-08-04T09:57:05.175Z,75.16
2016-08-04T09:58:05.171Z,75.07
2016-08-04T09:59:05.170Z,74.68
2016-08-04T10:00:05.164Z,74.78
2016-08-04T10:01:05.161Z,74.68
2016-08-04T10:02:05.162Z,74.49
2016-08-04T10:03:05.158Z,74.58
2016-08-04T10:04:05.152Z,74.4
2016-08-04T10:05:05.148Z,74.49
2016-08-04T10:06:05.149Z,74.3
2016-08-04T10:08:05.145Z,74.3
2016-08-04T10:09:05.145Z,74.58
2016-08-04T10:10:05.134Z,74.49
2016-08-04T10:11:05.132Z,74.3
2016-08-04T10:12:05.137Z,74.01
2016-08-04T10:13:05.134Z,74.58
2016-08-04T10:14:05.125Z,74.3
2016-08-04T10:15:05.129Z,74.1
2016-08-04T10:16:05.127Z,74.2
2016-08-04T10:17:05.123Z,74.2
2016-08-04T10:18:05.125Z,73.82
2016-08-04T10:19:05.114Z,73.91
2016-08-04T10:20:05.121Z,73.91
2016-08-04T10:21:05.107Z,74.01
2016-08-04T10:23:05.101Z,74.2
2016-08-04T10:24:05.114Z,73.82
2016-08-04T10:25:05.094Z,73.53
2016-08-04T10:26:05.293Z,73.53
2016-08-04T10:27:05.091Z,73.33
2016-08-04T10:28:05.089Z,73.66
2016-08-04T10:29:05.095Z,73.62
2016-08-04T10:30:05.081Z,73.53
2016-08-04T10:31:05.077Z,73.47
2016-08-04T10:32:05.079Z,73.24
2016-08-04T10:33:05.076Z,73.72
2016-08-04T10:34:05.071Z,73.57
2016-08-04T10:35:05.068Z,73.53
2016-08-04T10:36:05.063Z,73.53
2016-08-04T10:37:05.062Z,73.47
2016-08-04T10:38:05.065Z,73.33
2016-08-04T10:39:05.060Z,73.33
2016-08-04T10:40:05.057Z,73.66
2016-08-04T10:41:05.053Z,73.66
2016-08-04T10:42:05.055Z,73.37
2016-08-04T10:43:05.049Z,73.57
2016-08-04T10:44:05.045Z,73.47
2016-08-04T10:45:05.245Z,73.53
2016-08-04T10:46:05.043Z,73.33
2016-08-04T10:47:05.038Z,73.47
2016-08-04T10:48:05.037Z,73.43
2016-08-04T10:49:05.035Z,73.43
2016-08-04T10:50:05.032Z,73.47
2016-08-04T10:51:05.031Z,73.53
2016-08-04T10:52:05.025Z,73.37
2016-08-04T10:53:05.026Z,73.57
2016-08-04T10:54:05.023Z,73.37
2016-08-04T10:55:05.019Z,73.43
2016-08-04T10:56:05.011Z,73.37
2016-08-04T10:57:05.010Z,73.27
2016-08-04T10:58:05.012Z,73.27
2016-08-04T10:59:05.005Z,73.47
2016-08-04T11:00:05.005Z,73.27
2016-08-04T11:01:05.003Z,73.57
2016-08-04T11:02:05.004Z,73.37
2016-08-04T11:03:04.995Z,73.37
2016-08-04T11:04:04.995Z,73.57
2016-08-04T11:05:04.988Z,73.37
2016-08-04T11:06:04.983Z,73.66
2016-08-04T11:07:04.989Z,73.75
2016-08-04T11:08:04.981Z,73.66
2016-08-04T11:09:04.983Z,73.75
2016-08-04T11:10:04.977Z,73.85
2016-08-04T11:11:04.972Z,73.75
2016-08-04T11:12:04.973Z,73.37
2016-08-04T11:13:04.978Z,73.47
2016-08-04T11:14:04.972Z,73.08
2016-08-04T11:15:04.965Z,72.99
2016-08-04T11:16:04.964Z,72.99
2016-08-04T11:17:04.960Z,73.08
2016-08-04T11:18:04.956Z,72.99
2016-08-04T11:19:04.951Z,72.99
2016-08-04T11:20:04.953Z,72.99
2016-08-04T11:21:04.948Z,73.08
2016-08-04T11:22:04.943Z,72.99
2016-08-04T11:23:04.942Z,72.89
2016-08-04T11:24:04.945Z,73.08
2016-08-04T11:25:04.942Z,72.79
2016-08-04T11:26:04.935Z,72.69
2016-08-04T11:27:04.931Z,72.89
2016-08-04T11:28:04.933Z,72.79
2016-08-04T11:29:04.927Z,73.18
2016-08-04T11:30:04.934Z,73.18
2016-08-04T11:31:04.919Z,72.69
2016-08-04T11:32:04.919Z,72.69
2016-08-04T11:33:04.919Z,72.69
2016-08-04T11:34:04.914Z,72.89
2016-08-04T11:35:04.914Z,72.89
2016-08-04T11:36:04.911Z,72.5
2016-08-04T11:37:04.907Z,72.99
2016-08-04T11:38:04.906Z,72.99
2016-08-04T11:39:04.901Z,72.6
2016-08-04T11:40:04.975Z,72.41
2016-08-04T11:41:04.902Z,72.41
2016-08-04T11:42:04.899Z,72.54
2016-08-04T11:43:04.897Z,72.41
2016-08-04T11:44:04.895Z,72.54
2016-08-04T11:45:04.890Z,72.5
2016-08-04T11:46:04.891Z,72.63
2016-08-04T11:47:04.886Z,72.31
2016-08-04T11:48:04.880Z,72.41
2016-08-04T11:49:04.883Z,72.34
2016-08-04T11:50:04.882Z,72.25
2016-08-04T11:51:04.873Z,72.54
2016-08-04T11:52:04.870Z,72.25
2016-08-04T11:53:04.867Z,72.12
2016-08-04T11:54:04.865Z,72.25
2016-08-04T11:55:04.864Z,72.44
2016-08-04T11:56:04.859Z,73.21
2016-08-04T11:57:04.859Z,73.89
2016-08-04T11:58:04.852Z,73.99
2016-08-04T11:59:04.852Z,74.76
2016-08-04T12:00:04.851Z,74.57
2016-08-04T12:01:04.845Z,74.66
2016-08-04T12:02:04.848Z,75.05
2016-08-04T12:03:04.840Z,74.76
2016-08-04T12:04:04.836Z,75.34
2016-08-04T12:05:04.834Z,74.08
2016-08-04T12:06:04.832Z,74.76
2016-08-04T12:07:05.029Z,74.85
2016-08-04T12:08:04.826Z,75.62
2016-08-04T12:09:04.819Z,75.92
2016-08-04T12:10:04.818Z,75.14
2016-08-04T12:11:04.819Z,74.57
2016-08-04T12:12:04.814Z,74.47
2016-08-04T12:13:04.809Z,74.57
2016-08-04T12:14:04.810Z,74.57
2016-08-04T12:15:04.803Z,74.57
2016-08-04T12:16:04.800Z,74.37
2016-08-04T12:17:04.802Z,74.08
2016-08-04T12:18:04.799Z,73.89
2016-08-04T12:19:04.796Z,73.99
2016-08-04T12:20:04.798Z,74.08
2016-08-04T12:21:04.794Z,74.18
2016-08-04T12:22:04.787Z,73.41
2016-08-04T12:23:04.784Z,73.6
2016-08-04T12:24:04.791Z,73.6
2016-08-04T12:25:04.780Z,73.41
2016-08-04T12:26:04.775Z,73.69
2016-08-04T12:27:04.775Z,73.31
2016-08-04T12:28:04.769Z,72.63
2016-08-04T12:29:04.770Z,72.44
2016-08-04T12:30:04.778Z,72.63
2016-08-04T12:31:04.961Z,72.34
2016-08-04T12:32:04.759Z,72.44
2016-08-04T12:33:04.758Z,71.96
2016-08-04T12:34:04.758Z,71.58
2016-08-04T12:35:04.756Z,71.38
2016-08-04T12:36:04.953Z,70.32
2016-08-04T12:37:04.758Z,70.61
2016-08-04T12:38:04.751Z,70.51
2016-08-04T12:39:04.749Z,70.51
2016-08-04T12:40:04.950Z,70.61
2016-08-04T12:41:04.742Z,70.32
2016-08-04T12:42:04.736Z,70.03
2016-08-04T12:43:04.740Z,70.03
2016-08-04T12:44:04.735Z,70.51
2016-08-04T12:45:04.735Z,70.13
2016-08-04T12:46:04.732Z,70.03
2016-08-04T12:47:04.745Z,70.32
2016-08-04T12:48:04.730Z,70.42
2016-08-04T12:49:04.724Z,70.32
2016-08-04T12:50:04.723Z,70.22
2016-08-04T12:51:04.722Z,70.42
2016-08-04T12:52:04.713Z,70.13
2016-08-04T12:53:04.714Z,70.32
2016-08-04T12:54:04.716Z,70.61
2016-08-04T12:55:04.713Z,70.13
2016-08-04T12:56:04.710Z,70.61
2016-08-04T12:57:04.706Z,70.61
2016-08-04T12:58:04.704Z,71.19